createdAt,value
2022-08-22T00:00:16.856Z,21.20
2022-08-22T00:02:59.807Z,22.90
2022-08-22T00:03:17.463Z,21.00
2022-08-22T00:06:03.933Z,21.10
2022-08-22T00:08:46.318Z,21.10
2022-08-22T00:11:26.529Z,21.00
2022-08-22T00:14:02.231Z,21.00
2022-08-22T00:16:42.377Z,21.00
2022-08-22T00:19:25.136Z,21.00
2022-08-22T00:22:00.668Z,20.90
2022-08-22T00:24:34.487Z,20.80
2022-08-22T00:27:07.166Z,20.80
2022-08-22T00:29:45.865Z,20.80
2022-08-22T00:32:21.315Z,20.80
2022-08-22T00:34:58.299Z,20.70
2022-08-22T00:37:34.012Z,20.70
2022-08-22T00:40:14.004Z,20.60
2022-08-22T00:43:14.290Z,20.50
2022-08-22T00:46:20.774Z,20.60
2022-08-22T00:49:15.176Z,20.50
2022-08-22T00:52:18.144Z,20.40
2022-08-22T00:55:28.907Z,20.40
2022-08-22T00:58:48.916Z,20.50
2022-08-22T01:01:27.824Z,20.50
2022-08-22T01:04:26.261Z,20.40
2022-08-22T01:07:11.048Z,20.50
2022-08-22T01:09:54.650Z,20.50
2022-08-22T01:12:54.072Z,20.40
2022-08-22T01:15:27.154Z,20.40
2022-08-22T01:18:36.862Z,20.20
2022-08-22T01:21:39.980Z,20.20
2022-08-22T01:25:22.431Z,20.00
2022-08-22T01:28:49.407Z,20.00
2022-08-22T01:32:01.112Z,20.00
2022-08-22T01:35:05.884Z,20.10
2022-08-22T01:38:07.237Z,20.00
2022-08-22T01:41:23.550Z,20.10
2022-08-22T01:44:24.666Z,20.10
2022-08-22T01:46:59.842Z,20.20
2022-08-22T01:49:40.480Z,20.10
2022-08-22T01:52:14.196Z,20.00
2022-08-22T01:54:55.106Z,20.00
2022-08-22T01:57:24.592Z,20.00
2022-08-22T01:59:55.915Z,20.10
2022-08-22T02:02:52.310Z,20.10
2022-08-22T02:05:31.651Z,20.20
2022-08-22T02:08:08.219Z,20.10
2022-08-22T02:10:55.383Z,20.00
2022-08-22T02:13:43.469Z,20.00
2022-08-22T02:16:18.858Z,20.00
2022-08-22T02:19:01.033Z,19.80
2022-08-22T02:21:46.098Z,19.80
2022-08-22T02:24:29.612Z,19.80
2022-08-22T02:27:17.911Z,19.90
2022-08-22T02:29:53.133Z,19.80
2022-08-22T02:32:29.185Z,19.80
2022-08-22T02:35:07.522Z,19.80
2022-08-22T02:37:42.044Z,19.70
2022-08-22T02:40:18.729Z,19.60
2022-08-22T02:42:56.455Z,19.60
2022-08-22T02:45:38.945Z,19.60
2022-08-22T02:48:20.266Z,19.50
2022-08-22T02:50:56.919Z,19.60
2022-08-22T02:53:38.896Z,19.50
2022-08-22T02:56:14.491Z,19.40
2022-08-22T02:58:52.254Z,19.40
2022-08-22T03:01:37.465Z,19.40
2022-08-22T03:04:48.847Z,19.50
2022-08-22T03:07:32.783Z,19.40
2022-08-22T03:10:14.172Z,19.40
2022-08-22T03:12:57.416Z,19.40
2022-08-22T03:15:34.399Z,19.40
2022-08-22T03:18:15.768Z,19.30
2022-08-22T03:20:51.706Z,19.20
2022-08-22T03:23:32.676Z,19.20
2022-08-22T03:26:11.287Z,19.20
2022-08-22T03:28:56.097Z,19.10
2022-08-22T03:31:31.579Z,19.00
2022-08-22T03:34:23.674Z,19.00
2022-08-22T03:37:07.596Z,19.00
2022-08-22T03:39:58.996Z,18.90
2022-08-22T03:43:19.053Z,18.90
2022-08-22T03:46:34.707Z,18.90
2022-08-22T03:49:33.237Z,18.90
2022-08-22T03:53:02.054Z,18.60
2022-08-22T03:55:53.091Z,18.50
2022-08-22T03:58:47.280Z,18.40
2022-08-22T04:01:48.225Z,18.40
2022-08-22T04:05:18.866Z,18.40
2022-08-22T04:08:53.428Z,18.40
2022-08-22T04:11:52.322Z,18.10
2022-08-22T04:15:01.354Z,18.00
2022-08-22T04:17:54.863Z,18.10
2022-08-22T04:20:55.175Z,18.30
2022-08-22T04:23:59.308Z,18.30
2022-08-22T04:26:38.832Z,18.10
2022-08-22T04:29:17.255Z,18.10
2022-08-22T04:32:06.958Z,18.00
2022-08-22T04:34:41.470Z,18.00
2022-08-22T04:37:15.853Z,18.10
2022-08-22T04:39:53.314Z,17.90
2022-08-22T04:42:32.823Z,17.80
2022-08-22T04:45:08.718Z,17.90
2022-08-22T04:47:43.899Z,17.70
2022-08-22T04:50:22.568Z,17.70
2022-08-22T04:53:19.548Z,17.70
2022-08-22T04:56:03.017Z,17.60
2022-08-22T04:58:46.911Z,17.60
2022-08-22T05:01:19.722Z,17.70
2022-08-22T05:03:57.354Z,17.80
2022-08-22T05:06:31.202Z,17.90
2022-08-22T05:09:04.926Z,18.00
2022-08-22T05:11:35.358Z,18.00
2022-08-22T05:14:08.334Z,17.90
2022-08-22T05:16:41.031Z,18.00
2022-08-22T05:19:22.993Z,17.90
2022-08-22T05:21:56.716Z,17.80
2022-08-22T05:24:29.714Z,17.80
2022-08-22T05:27:03.263Z,17.80
2022-08-22T05:29:35.166Z,17.70
2022-08-22T05:32:10.033Z,17.80
2022-08-22T05:34:43.993Z,17.80
2022-08-22T05:37:17.565Z,17.70
2022-08-22T05:39:50.307Z,17.70
2022-08-22T05:42:25.520Z,17.80
2022-08-22T05:44:55.282Z,18.00
2022-08-22T05:47:26.963Z,17.90
2022-08-22T05:50:02.809Z,17.90
2022-08-22T05:52:45.343Z,18.00
2022-08-22T05:55:25.332Z,18.10
2022-08-22T05:58:14.932Z,18.20
2022-08-22T06:00:48.572Z,18.30
2022-08-22T06:03:24.968Z,18.30
2022-08-22T06:05:58.548Z,18.80
2022-08-22T06:08:34.690Z,19.50
2022-08-22T06:11:09.515Z,20.20
2022-08-22T06:13:42.848Z,21.20
2022-08-22T06:16:21.442Z,22.00
2022-08-22T06:18:51.742Z,22.90
2022-08-22T06:21:30.586Z,23.60
2022-08-22T06:24:02.415Z,24.00
2022-08-22T06:26:37.948Z,24.60
2022-08-22T06:29:09.364Z,24.90
2022-08-22T06:31:45.646Z,25.00
2022-08-22T06:34:17.221Z,25.30
2022-08-22T06:36:51.170Z,25.70
2022-08-22T06:39:23.916Z,25.80
2022-08-22T06:42:24.611Z,26.10
2022-08-22T06:45:09.227Z,26.60
2022-08-22T06:48:00.625Z,26.80
2022-08-22T06:50:47.450Z,27.00
2022-08-22T06:53:21.533Z,27.50
2022-08-22T06:55:54.508Z,28.30
2022-08-22T06:58:32.301Z,28.70
2022-08-22T07:01:12.345Z,28.90
2022-08-22T07:03:45.724Z,28.90
2022-08-22T07:06:17.616Z,29.30
2022-08-22T07:08:47.426Z,28.10
2022-08-22T07:11:23.537Z,27.70
2022-08-22T07:13:58.819Z,27.90
2022-08-22T07:16:32.454Z,28.20
2022-08-22T07:19:01.278Z,28.00
2022-08-22T07:21:43.708Z,27.10
2022-08-22T07:24:18.682Z,27.30
2022-08-22T07:27:12.164Z,28.40
2022-08-22T07:29:48.973Z,29.10
2022-08-22T07:32:22.608Z,29.80
2022-08-22T07:35:10.684Z,30.20
2022-08-22T07:37:57.661Z,29.70
2022-08-22T07:40:34.711Z,29.00
2022-08-22T07:43:13.814Z,28.60
2022-08-22T07:45:49.805Z,28.20
2022-08-22T07:48:29.521Z,27.90
2022-08-22T07:51:05.716Z,27.50
2022-08-22T07:53:42.689Z,27.30
2022-08-22T07:56:18.906Z,27.40
2022-08-22T07:58:51.932Z,27.30
2022-08-22T08:01:23.270Z,28.40
2022-08-22T08:03:59.089Z,28.60
2022-08-22T08:06:29.477Z,28.60
2022-08-22T08:08:58.818Z,28.60
2022-08-22T08:11:34.792Z,28.40
2022-08-22T08:14:06.858Z,28.50
2022-08-22T08:16:44.477Z,29.70
2022-08-22T08:19:16.586Z,30.80
2022-08-22T08:21:50.388Z,31.10
2022-08-22T08:24:23.875Z,32.30
2022-08-22T08:27:14.904Z,32.90
2022-08-22T08:29:50.582Z,33.40
2022-08-22T08:32:19.425Z,33.30
2022-08-22T08:34:47.852Z,32.80
2022-08-22T08:37:37.675Z,32.50
2022-08-22T08:40:37.062Z,31.80
2022-08-22T08:43:31.349Z,31.40
2022-08-22T08:46:24.723Z,31.40
2022-08-22T08:49:42.055Z,31.40
2022-08-22T08:53:07.422Z,31.00
2022-08-22T08:55:51.119Z,31.10
2022-08-22T08:58:54.299Z,30.70
2022-08-22T09:02:04.518Z,30.90
2022-08-22T09:05:21.274Z,31.60
2022-08-22T09:08:31.780Z,31.80
2022-08-22T09:11:36.209Z,32.20
2022-08-22T09:14:24.064Z,32.70
2022-08-22T09:17:47.522Z,33.20
2022-08-22T09:20:50.343Z,33.30
2022-08-22T09:24:17.005Z,33.50
2022-08-22T09:26:51.210Z,33.90
2022-08-22T09:29:54.724Z,34.60
2022-08-22T09:32:44.472Z,34.00
2022-08-22T09:35:25.237Z,34.20
2022-08-22T09:38:28.461Z,34.00
2022-08-22T09:41:14.838Z,33.70
2022-08-22T09:43:49.810Z,34.50
2022-08-22T09:46:29.455Z,34.60
2022-08-22T09:49:07.761Z,34.80
2022-08-22T09:51:45.381Z,35.30
2022-08-22T09:54:32.883Z,35.50
2022-08-22T09:57:19.458Z,35.50
2022-08-22T10:00:17.547Z,34.70
2022-08-22T10:03:07.624Z,34.40
2022-08-22T10:05:45.474Z,34.30
2022-08-22T10:08:27.149Z,34.30
2022-08-22T10:11:12.730Z,34.70
2022-08-22T10:14:00.758Z,34.70
2022-08-22T10:16:55.480Z,34.00
2022-08-22T10:19:31.922Z,34.90
2022-08-22T10:22:31.198Z,35.10
2022-08-22T10:25:13.886Z,35.10
2022-08-22T10:28:13.569Z,34.90
2022-08-22T10:30:52.636Z,34.40
2022-08-22T10:33:29.884Z,34.00
2022-08-22T10:36:12.059Z,33.90
2022-08-22T10:38:46.951Z,33.60
2022-08-22T10:41:28.642Z,33.50
2022-08-22T10:44:05.118Z,32.90
2022-08-22T10:46:41.696Z,33.20
2022-08-22T10:49:17.936Z,33.70
2022-08-22T10:51:55.011Z,34.10
2022-08-22T10:54:42.891Z,34.40
2022-08-22T10:57:48.331Z,34.60
2022-08-22T11:00:46.414Z,34.50
2022-08-22T11:03:25.626Z,34.20
2022-08-22T11:05:59.555Z,34.20
2022-08-22T11:08:59.405Z,34.00
2022-08-22T11:11:43.959Z,33.30
2022-08-22T11:14:49.683Z,32.40
2022-08-22T11:17:39.756Z,31.90
2022-08-22T11:20:22.965Z,32.00
2022-08-22T11:23:12.351Z,32.00
2022-08-22T11:25:54.905Z,31.40
2022-08-22T11:29:13.578Z,31.00
2022-08-22T11:31:52.547Z,30.50
2022-08-22T11:34:39.004Z,29.90
2022-08-22T11:37:15.336Z,29.80
2022-08-22T11:39:51.944Z,29.80
2022-08-22T11:42:29.726Z,29.70
2022-08-22T11:45:01.713Z,29.60
2022-08-22T11:47:36.577Z,29.50
2022-08-22T11:50:16.050Z,29.60
2022-08-22T11:53:16.978Z,29.70
2022-08-22T11:55:53.246Z,29.70
2022-08-22T11:58:35.279Z,29.60
2022-08-22T12:01:06.576Z,29.30
2022-08-22T12:04:13.001Z,29.40
2022-08-22T12:07:00.932Z,29.50
2022-08-22T12:09:44.478Z,29.70
2022-08-22T12:12:42.207Z,29.80
2022-08-22T12:15:17.749Z,29.70
2022-08-22T12:18:36.535Z,29.80
2022-08-22T12:21:47.007Z,30.00
2022-08-22T12:24:52.916Z,30.30
2022-08-22T12:27:49.716Z,30.50
2022-08-22T12:30:37.143Z,30.50
2022-08-22T12:33:46.120Z,30.20
2022-08-22T12:36:51.986Z,30.10
2022-08-22T12:39:44.823Z,30.10
2022-08-22T12:43:01.501Z,30.30
2022-08-22T12:46:13.276Z,30.00
2022-08-22T12:49:00.294Z,30.10
2022-08-22T12:52:04.821Z,30.20
2022-08-22T12:55:28.436Z,30.30
2022-08-22T12:58:09.578Z,30.20
2022-08-22T13:00:45.073Z,30.30
2022-08-22T13:03:24.844Z,30.10
2022-08-22T13:05:56.965Z,30.10
2022-08-22T13:08:33.378Z,30.10
2022-08-22T13:11:09.871Z,30.20
2022-08-22T13:13:56.138Z,30.30
2022-08-22T13:16:36.991Z,30.20
2022-08-22T13:19:13.590Z,29.80
2022-08-22T13:21:51.667Z,29.50
2022-08-22T13:24:39.243Z,29.30
2022-08-22T13:27:15.954Z,29.20
2022-08-22T13:29:54.798Z,29.10
2022-08-22T13:32:37.112Z,29.10
2022-08-22T13:35:09.660Z,29.20
2022-08-22T13:37:44.376Z,29.20
2022-08-22T13:40:25.115Z,29.20
2022-08-22T13:43:04.055Z,29.40
2022-08-22T13:45:34.404Z,29.60
2022-08-22T13:48:12.148Z,29.50
2022-08-22T13:51:06.155Z,29.50
2022-08-22T13:53:57.470Z,29.40
2022-08-22T13:56:36.833Z,29.50
2022-08-22T13:59:29.294Z,29.30
2022-08-22T14:02:17.831Z,29.40
2022-08-22T14:04:52.877Z,29.20
2022-08-22T14:07:31.659Z,29.10
2022-08-22T14:10:06.603Z,29.20
2022-08-22T14:13:22.957Z,29.30
2022-08-22T14:16:00.581Z,29.40
2022-08-22T14:18:35.903Z,29.20
2022-08-22T14:21:28.068Z,29.20
2022-08-22T14:24:09.675Z,29.40
2022-08-22T14:26:47.547Z,29.40
2022-08-22T14:29:19.547Z,29.40
2022-08-22T14:31:59.853Z,29.40
2022-08-22T14:34:30.027Z,29.50
2022-08-22T14:37:06.072Z,29.40
2022-08-22T14:39:42.861Z,29.40
2022-08-22T14:42:18.539Z,29.50
2022-08-22T14:45:06.413Z,29.50
2022-08-22T14:47:54.975Z,29.60
2022-08-22T14:50:44.242Z,29.70
2022-08-22T14:53:25.531Z,29.50
2022-08-22T14:55:59.845Z,29.40
2022-08-22T14:58:30.245Z,29.40
2022-08-22T15:01:09.885Z,29.40
2022-08-22T15:03:39.240Z,29.30
2022-08-22T15:06:12.480Z,29.30
2022-08-22T15:08:51.736Z,29.30
2022-08-22T15:11:25.828Z,29.20
2022-08-22T15:14:01.579Z,29.20
2022-08-22T15:16:40.414Z,29.20
2022-08-22T15:19:27.257Z,29.20
2022-08-22T15:22:13.615Z,29.20
2022-08-22T15:24:47.961Z,29.10
2022-08-22T15:27:20.147Z,29.10
2022-08-22T15:29:55.483Z,29.00
2022-08-22T15:32:26.852Z,29.00
2022-08-22T15:35:10.831Z,29.00
2022-08-22T15:38:02.149Z,29.00
2022-08-22T15:40:41.157Z,29.10
2022-08-22T15:43:26.607Z,29.00
2022-08-22T15:46:32.246Z,29.10
2022-08-22T15:49:03.907Z,29.20
2022-08-22T15:51:40.810Z,29.30
2022-08-22T15:54:24.647Z,29.30
2022-08-22T15:57:18.688Z,29.30
2022-08-22T15:59:57.792Z,29.40
2022-08-22T16:02:35.402Z,29.20
2022-08-22T16:05:26.315Z,29.10
2022-08-22T16:08:04.643Z,29.10
2022-08-22T16:10:39.278Z,29.10
2022-08-22T16:13:34.599Z,29.10
2022-08-22T16:16:12.646Z,29.10
2022-08-22T16:19:20.284Z,29.10
2022-08-22T16:22:14.791Z,29.00
2022-08-22T16:25:10.576Z,28.90
2022-08-22T16:27:54.366Z,28.90
2022-08-22T16:30:36.538Z,28.90
2022-08-22T16:33:14.840Z,28.90
2022-08-22T16:36:39.139Z,28.80
2022-08-22T16:39:15.854Z,28.80
2022-08-22T16:41:44.951Z,28.90
2022-08-22T16:44:40.411Z,28.70
2022-08-22T16:47:14.916Z,28.50
2022-08-22T16:50:00.725Z,28.40
2022-08-22T16:52:58.869Z,28.30
2022-08-22T16:56:10.797Z,28.00
2022-08-22T16:59:23.990Z,27.80
2022-08-22T17:02:15.346Z,27.80
2022-08-22T17:05:03.379Z,27.80
2022-08-22T17:07:50.746Z,27.60
2022-08-22T17:10:32.241Z,27.40
2022-08-22T17:13:20.316Z,27.40
2022-08-22T17:16:14.011Z,27.30
2022-08-22T17:19:05.218Z,27.20
2022-08-22T17:21:41.503Z,27.10
2022-08-22T17:24:32.436Z,27.10
2022-08-22T17:27:09.853Z,27.10
2022-08-22T17:30:02.288Z,26.90
2022-08-22T17:32:42.316Z,26.80
2022-08-22T17:35:32.847Z,26.80
2022-08-22T17:38:14.016Z,26.80
2022-08-22T17:41:06.447Z,26.70
2022-08-22T17:43:58.768Z,26.70
2022-08-22T17:46:42.488Z,26.60
2022-08-22T17:49:22.602Z,26.60
2022-08-22T17:52:00.186Z,26.50
2022-08-22T17:54:40.337Z,26.60
2022-08-22T17:57:13.848Z,26.60
2022-08-22T17:59:50.658Z,26.60
2022-08-22T18:02:26.461Z,26.50
2022-08-22T18:05:07.340Z,26.50
2022-08-22T18:07:58.085Z,26.50
2022-08-22T18:10:40.482Z,26.50
2022-08-22T18:13:14.981Z,26.60
2022-08-22T18:15:51.348Z,26.60
2022-08-22T18:18:31.501Z,26.60
2022-08-22T18:21:05.109Z,26.40
2022-08-22T18:23:40.852Z,26.20
2022-08-22T18:26:24.289Z,26.10
2022-08-22T18:28:57.402Z,25.80
2022-08-22T18:31:39.067Z,25.70
2022-08-22T18:34:20.118Z,25.60
2022-08-22T18:36:56.109Z,25.50
2022-08-22T18:39:31.259Z,25.60
2022-08-22T18:42:10.742Z,25.60
2022-08-22T18:44:40.875Z,25.60
2022-08-22T18:47:16.362Z,25.70
2022-08-22T18:49:49.304Z,25.50
2022-08-22T18:52:38.687Z,25.50
2022-08-22T18:55:45.814Z,25.30
2022-08-22T18:58:34.304Z,25.00
2022-08-22T19:01:44.313Z,25.00
2022-08-22T19:04:41.243Z,25.00
2022-08-22T19:07:35.423Z,24.90
2022-08-22T19:10:35.316Z,24.90
2022-08-22T19:13:27.562Z,24.90
2022-08-22T19:16:08.702Z,24.80
2022-08-22T19:18:43.743Z,24.50
2022-08-22T19:21:40.802Z,24.40
2022-08-22T19:24:14.157Z,24.40
2022-08-22T19:26:47.703Z,24.50
2022-08-22T19:29:55.759Z,24.60
2022-08-22T19:32:59.109Z,24.30
2022-08-22T19:35:37.125Z,24.20
2022-08-22T19:38:08.017Z,24.30
2022-08-22T19:40:56.091Z,24.10
2022-08-22T19:43:38.282Z,24.00
2022-08-22T19:46:10.844Z,24.00
2022-08-22T19:48:50.179Z,23.90
2022-08-22T19:51:31.718Z,23.80
2022-08-22T19:54:20.783Z,23.90
2022-08-22T19:57:04.582Z,23.70
2022-08-22T19:59:51.145Z,23.50
2022-08-22T20:02:35.764Z,23.60
2022-08-22T20:05:26.960Z,23.70
2022-08-22T20:08:29.405Z,23.60
2022-08-22T20:11:25.170Z,23.70
2022-08-22T20:14:29.914Z,23.60
2022-08-22T20:17:15.856Z,23.30
2022-08-22T20:22:45.999Z,23.20
2022-08-22T20:25:43.301Z,23.10
2022-08-22T20:28:47.569Z,23.00
2022-08-22T20:31:22.733Z,23.10
2022-08-22T20:33:58.804Z,23.10
2022-08-22T20:36:29.292Z,22.90
2022-08-22T20:39:01.585Z,22.80
2022-08-22T20:41:36.608Z,22.70
2022-08-22T20:44:13.291Z,22.60
2022-08-22T20:46:55.085Z,22.60
2022-08-22T20:49:29.935Z,22.50
2022-08-22T20:52:05.135Z,22.40
2022-08-22T20:54:37.868Z,22.30
2022-08-22T20:57:15.971Z,22.20
2022-08-22T20:59:52.750Z,22.30
2022-08-22T21:02:26.154Z,22.30
2022-08-22T21:05:06.514Z,22.20
2022-08-22T21:07:38.463Z,22.20
2022-08-22T21:10:34.132Z,22.20
2022-08-22T21:13:10.379Z,22.20
2022-08-22T21:15:42.509Z,22.10
2022-08-22T21:18:13.299Z,22.20
2022-08-22T21:20:43.019Z,22.10
2022-08-22T21:23:16.229Z,22.10
2022-08-22T21:26:01.404Z,22.10
2022-08-22T21:28:33.841Z,22.10
2022-08-22T21:31:14.990Z,22.10
2022-08-22T21:33:48.567Z,22.00
2022-08-22T21:36:21.118Z,22.10
2022-08-22T21:38:53.478Z,22.00
2022-08-22T21:41:32.017Z,22.00
2022-08-22T21:44:19.308Z,21.90
2022-08-22T21:46:47.395Z,21.90
2022-08-22T21:49:24.291Z,21.90
2022-08-22T21:51:54.542Z,22.00
2022-08-22T21:54:43.452Z,22.20
2022-08-22T21:57:35.942Z,22.00
2022-08-22T22:00:13.277Z,22.00
2022-08-22T22:02:43.737Z,22.00
2022-08-22T22:05:14.942Z,22.00
2022-08-22T22:07:48.368Z,21.80
2022-08-22T22:10:20.979Z,21.90
2022-08-22T22:12:52.600Z,21.80
2022-08-22T22:15:25.097Z,21.90
2022-08-22T22:17:53.660Z,21.90
2022-08-22T22:20:26.096Z,22.00
2022-08-22T22:22:57.298Z,22.00
2022-08-22T22:25:40.650Z,22.10
2022-08-22T22:28:15.549Z,22.20
2022-08-22T22:30:45.445Z,22.10
2022-08-22T22:33:13.736Z,21.90
2022-08-22T22:35:42.642Z,22.00
2022-08-22T22:38:14.681Z,21.80
2022-08-22T22:40:42.861Z,21.70
2022-08-22T22:43:12.055Z,21.70
2022-08-22T22:45:40.788Z,21.80
2022-08-22T22:48:17.422Z,21.80
2022-08-22T22:50:52.858Z,21.70
2022-08-22T22:53:38.696Z,21.60
2022-08-22T22:56:21.492Z,21.60
2022-08-22T22:58:50.695Z,21.60
2022-08-22T23:01:28.949Z,21.40
2022-08-22T23:04:05.396Z,21.30
2022-08-22T23:06:35.444Z,21.30
2022-08-22T23:09:05.130Z,21.30
2022-08-22T23:11:33.403Z,21.20
2022-08-22T23:14:03.033Z,21.20
2022-08-22T23:16:36.611Z,20.90
2022-08-22T23:19:10.219Z,20.90
2022-08-22T23:21:38.664Z,20.80
2022-08-22T23:24:08.972Z,20.80
2022-08-22T23:26:38.030Z,20.80
2022-08-22T23:29:07.300Z,20.70
2022-08-22T23:31:39.170Z,20.70
2022-08-22T23:34:11.816Z,20.60
2022-08-22T23:36:41.408Z,20.70
2022-08-22T23:39:11.361Z,20.60
2022-08-22T23:41:40.694Z,20.50
2022-08-22T23:44:13.608Z,20.50
2022-08-22T23:46:43.286Z,20.40
2022-08-22T23:49:13.903Z,20.50
2022-08-22T23:51:43.381Z,20.40
2022-08-22T23:54:13.702Z,20.40
2022-08-22T23:56:44.386Z,20.30
2022-08-22T23:59:16.213Z,20.20
